createdAt,value
2022-10-07T00:01:49.752Z,65.53
2022-10-07T00:07:11.030Z,66.01
2022-10-07T00:12:31.920Z,65.86
2022-10-07T00:17:53.437Z,65.77
2022-10-07T00:23:14.270Z,65.92
2022-10-07T00:28:36.461Z,65.50
2022-10-07T00:33:58.826Z,65.93
2022-10-07T00:39:19.413Z,66.48
2022-10-07T00:44:43.543Z,65.99
2022-10-07T00:50:11.039Z,66.34
2022-10-07T00:55:32.494Z,66.18
2022-10-07T01:00:53.891Z,66.16
2022-10-07T01:06:15.277Z,65.74
2022-10-07T01:11:50.798Z,66.40
2022-10-07T01:17:28.610Z,66.28
2022-10-07T01:23:16.501Z,66.35
2022-10-07T01:28:43.408Z,66.54
2022-10-07T01:34:08.408Z,66.54
2022-10-07T01:39:34.557Z,66.35
2022-10-07T01:44:58.857Z,67.18
2022-10-07T01:50:24.085Z,66.83
2022-10-07T01:55:54.022Z,66.31
2022-10-07T02:01:50.594Z,66.80
2022-10-07T02:07:11.425Z,66.30
2022-10-07T02:12:40.942Z,66.06
2022-10-07T02:18:08.412Z,66.23
2022-10-07T02:23:29.675Z,66.55
2022-10-07T02:28:53.642Z,66.66
2022-10-07T02:34:20.304Z,67.43
2022-10-07T02:39:43.683Z,66.99
2022-10-07T02:45:17.460Z,67.00
2022-10-07T02:50:45.385Z,67.35
2022-10-07T02:56:07.555Z,66.93
2022-10-07T03:01:33.018Z,67.31
2022-10-07T03:06:55.016Z,67.06
2022-10-07T03:12:18.285Z,68.05
2022-10-07T03:17:40.848Z,67.80
2022-10-07T03:23:02.227Z,67.46
2022-10-07T03:28:25.630Z,67.35
2022-10-07T03:33:47.708Z,67.54
2022-10-07T03:39:08.512Z,67.76
2022-10-07T03:44:30.714Z,67.62
2022-10-07T03:49:51.962Z,68.40
2022-10-07T03:55:12.581Z,68.31
2022-10-07T04:00:34.553Z,68.74
2022-10-07T04:05:59.774Z,68.76
2022-10-07T04:11:24.384Z,68.92
2022-10-07T04:16:48.335Z,68.61
2022-10-07T04:22:09.965Z,68.48
2022-10-07T04:27:50.761Z,68.82
2022-10-07T04:33:12.501Z,68.47
2022-10-07T04:38:33.850Z,68.54
2022-10-07T04:43:57.966Z,68.60
2022-10-07T04:49:21.969Z,68.98
2022-10-07T04:54:42.691Z,68.55
2022-10-07T05:00:05.577Z,68.36
2022-10-07T05:05:28.034Z,68.15
2022-10-07T05:10:55.269Z,68.66
2022-10-07T05:16:16.519Z,68.60
2022-10-07T05:21:37.811Z,68.85
2022-10-07T05:26:59.160Z,68.88
2022-10-07T05:32:21.423Z,69.21
2022-10-07T05:37:44.587Z,68.75
2022-10-07T05:43:10.822Z,68.77
2022-10-07T05:48:38.089Z,68.73
2022-10-07T05:54:01.303Z,68.63
2022-10-07T05:59:28.764Z,69.25
2022-10-07T06:04:49.469Z,69.30
2022-10-07T06:10:29.974Z,69.08
2022-10-07T06:15:51.125Z,69.02
2022-10-07T06:21:12.781Z,68.98
2022-10-07T06:26:34.633Z,69.49
2022-10-07T06:31:56.659Z,69.45
2022-10-07T06:37:17.783Z,69.46
2022-10-07T06:42:38.637Z,69.29
2022-10-07T06:48:23.157Z,69.44
2022-10-07T06:53:45.360Z,69.46
2022-10-07T06:59:07.802Z,69.70
2022-10-07T07:05:04.622Z,69.51
2022-10-07T07:10:25.590Z,69.28
2022-10-07T07:16:00.209Z,69.43
2022-10-07T07:21:26.196Z,69.38
2022-10-07T07:26:47.501Z,69.25
2022-10-07T07:32:09.013Z,68.71
2022-10-07T07:37:34.070Z,69.17
2022-10-07T07:42:55.752Z,69.24
2022-10-07T07:48:16.702Z,69.02
2022-10-07T07:53:38.135Z,68.90
2022-10-07T07:59:00.469Z,68.80
2022-10-07T08:04:22.898Z,68.91
2022-10-07T08:09:44.064Z,68.88
2022-10-07T08:15:05.606Z,68.50
2022-10-07T08:20:26.986Z,68.71
2022-10-07T08:25:53.755Z,68.20
2022-10-07T08:31:18.086Z,68.54
2022-10-07T08:36:39.756Z,68.57
2022-10-07T08:42:15.179Z,69.31
2022-10-07T08:47:44.253Z,68.41
2022-10-07T08:53:08.839Z,68.41
2022-10-07T08:58:38.446Z,68.42
2022-10-07T09:04:21.139Z,69.22
2022-10-07T09:10:09.660Z,68.66
2022-10-07T09:15:47.501Z,68.85
2022-10-07T09:21:20.046Z,68.75
2022-10-07T09:26:41.557Z,68.77
2022-10-07T09:32:02.621Z,68.79
2022-10-07T09:37:26.677Z,68.59
2022-10-07T09:42:49.744Z,68.83
2022-10-07T09:48:20.974Z,68.60
2022-10-07T09:54:04.069Z,68.73
2022-10-07T09:59:36.183Z,69.01
2022-10-07T10:04:57.581Z,68.78
2022-10-07T10:10:23.474Z,68.91
2022-10-07T10:15:44.982Z,68.37
2022-10-07T10:21:22.670Z,68.50
2022-10-07T10:27:21.860Z,68.97
2022-10-07T10:32:50.000Z,68.18
2022-10-07T10:38:28.388Z,68.24
2022-10-07T10:43:59.092Z,68.24
2022-10-07T10:49:28.909Z,68.45
2022-10-07T10:54:49.778Z,68.27
2022-10-07T11:00:16.034Z,68.38
2022-10-07T11:05:42.611Z,68.18
2022-10-07T11:11:09.068Z,68.13
2022-10-07T11:16:51.271Z,67.81
2022-10-07T11:22:32.922Z,68.26
2022-10-07T11:28:01.422Z,68.20
2022-10-07T11:33:34.032Z,67.93
2022-10-07T11:38:54.792Z,68.03
2022-10-07T11:44:28.992Z,67.53
2022-10-07T11:49:57.850Z,68.03
2022-10-07T11:55:34.340Z,67.71
2022-10-07T12:01:26.399Z,67.81
2022-10-07T12:07:25.120Z,68.03
2022-10-07T12:12:46.694Z,67.89
2022-10-07T12:18:07.632Z,67.87
2022-10-07T12:23:37.535Z,67.95
2022-10-07T12:29:04.681Z,67.74
2022-10-07T12:34:36.138Z,67.98
2022-10-07T12:39:59.042Z,67.81
2022-10-07T12:45:22.794Z,67.83
2022-10-07T12:50:45.816Z,67.48
2022-10-07T12:56:06.748Z,67.12
2022-10-07T13:01:52.512Z,67.32
2022-10-07T13:07:46.158Z,67.15
2022-10-07T13:13:39.908Z,67.36
2022-10-07T13:19:15.270Z,67.36
2022-10-07T13:24:40.532Z,67.12
2022-10-07T13:30:04.781Z,67.26
2022-10-07T13:35:32.492Z,67.63
2022-10-07T13:41:24.902Z,67.48
2022-10-07T13:47:01.278Z,67.12
2022-10-07T13:52:41.720Z,66.99
2022-10-07T13:58:05.443Z,67.20
2022-10-07T14:03:26.095Z,67.38
2022-10-07T14:08:51.404Z,67.58
2022-10-07T14:14:19.662Z,67.20
2022-10-07T14:19:41.146Z,67.25
2022-10-07T14:25:04.312Z,67.49
2022-10-07T14:30:28.273Z,67.35
2022-10-07T14:35:51.355Z,67.35
2022-10-07T14:41:13.129Z,67.84
2022-10-07T14:46:34.101Z,67.45
2022-10-07T14:51:54.653Z,67.68
2022-10-07T14:57:15.371Z,67.69
2022-10-07T15:02:35.791Z,67.87
2022-10-07T15:07:56.518Z,67.46
2022-10-07T15:13:17.178Z,67.55
2022-10-07T15:18:42.360Z,67.59
2022-10-07T15:24:04.171Z,67.72
2022-10-07T15:29:24.812Z,67.85
2022-10-07T15:34:46.041Z,67.77
2022-10-07T15:40:07.718Z,67.82
2022-10-07T15:45:28.582Z,67.94
2022-10-07T15:50:51.497Z,67.83
2022-10-07T15:56:12.386Z,68.19
2022-10-07T16:01:33.133Z,68.03
2022-10-07T16:06:53.636Z,68.03
2022-10-07T16:12:14.441Z,67.49
2022-10-07T16:17:35.663Z,67.33
2022-10-07T16:22:56.567Z,68.02
2022-10-07T16:28:35.726Z,68.10
2022-10-07T16:33:56.686Z,67.69
2022-10-07T16:39:20.046Z,67.75
2022-10-07T16:44:40.939Z,67.49
2022-10-07T16:50:01.545Z,67.58
2022-10-07T16:55:22.946Z,67.69
2022-10-07T17:00:44.033Z,68.00
2022-10-07T17:06:05.001Z,67.88
2022-10-07T17:11:28.749Z,67.93
2022-10-07T17:16:55.999Z,68.10
2022-10-07T17:22:17.276Z,67.58
2022-10-07T17:27:37.958Z,67.48
2022-10-07T17:32:58.758Z,67.16
2022-10-07T17:38:19.289Z,67.25
2022-10-07T17:43:41.495Z,67.38
2022-10-07T17:49:02.855Z,67.69
2022-10-07T17:54:24.095Z,67.69
2022-10-07T17:59:44.968Z,67.78
2022-10-07T18:05:07.225Z,68.28
2022-10-07T18:10:28.020Z,67.51
2022-10-07T18:15:57.822Z,67.45
2022-10-07T18:21:18.390Z,67.75
2022-10-07T18:26:39.005Z,67.60
2022-10-07T18:31:59.972Z,67.57
2022-10-07T18:37:21.114Z,67.64
2022-10-07T18:42:42.061Z,67.74
2022-10-07T18:48:03.344Z,67.43
2022-10-07T18:53:24.206Z,67.17
2022-10-07T18:58:47.449Z,67.27
2022-10-07T19:04:09.749Z,67.69
2022-10-07T19:09:31.980Z,67.81
2022-10-07T19:14:54.379Z,67.58
2022-10-07T19:20:17.070Z,67.71
2022-10-07T19:25:47.556Z,67.77
2022-10-07T19:31:16.170Z,67.64
2022-10-07T19:36:42.443Z,68.09
2022-10-07T19:42:03.286Z,68.27
2022-10-07T19:47:25.096Z,68.51
2022-10-07T19:52:46.941Z,68.91
2022-10-07T19:58:07.552Z,68.74
2022-10-07T20:03:28.365Z,69.09
2022-10-07T20:08:48.860Z,68.86
2022-10-07T20:14:10.364Z,68.68
2022-10-07T20:19:31.398Z,68.81
2022-10-07T20:24:52.145Z,68.54
2022-10-07T20:30:17.832Z,68.55
2022-10-07T20:35:39.580Z,68.41
2022-10-07T20:41:19.394Z,68.21
2022-10-07T20:46:40.757Z,68.12
2022-10-07T20:52:07.184Z,67.83
2022-10-07T20:57:33.949Z,68.17
2022-10-07T21:02:55.038Z,67.83
2022-10-07T21:08:15.888Z,68.08
2022-10-07T21:13:36.433Z,67.85
2022-10-07T21:18:57.240Z,68.12
2022-10-07T21:24:18.734Z,68.10
2022-10-07T21:29:41.395Z,68.52
2022-10-07T21:35:02.632Z,68.01
2022-10-07T21:40:23.360Z,68.11
2022-10-07T21:45:44.222Z,68.19
2022-10-07T21:51:09.506Z,67.82
2022-10-07T21:56:32.318Z,68.35
2022-10-07T22:01:53.167Z,68.58
2022-10-07T22:07:32.335Z,68.15
2022-10-07T22:12:54.207Z,67.84
2022-10-07T22:18:15.585Z,68.00
2022-10-07T22:23:36.638Z,67.56
2022-10-07T22:28:57.695Z,67.78
2022-10-07T22:34:37.274Z,67.88
2022-10-07T22:39:57.815Z,67.66
2022-10-07T22:45:19.642Z,67.75
2022-10-07T22:50:40.628Z,67.98
2022-10-07T22:56:06.408Z,67.96
2022-10-07T23:01:31.499Z,67.48
2022-10-07T23:06:53.560Z,67.52
2022-10-07T23:12:14.518Z,67.36
2022-10-07T23:17:35.376Z,67.56
2022-10-07T23:22:56.018Z,67.74
2022-10-07T23:28:16.740Z,67.95
2022-10-07T23:33:38.266Z,67.56
2022-10-07T23:39:00.670Z,67.62
2022-10-07T23:44:23.098Z,67.65
2022-10-07T23:49:43.838Z,67.86
2022-10-07T23:55:05.226Z,67.88
